sensor_id;sensor_type;location;lat;lon;timestamp;P1;durP1;ratioP1;P2;durP2;ratioP2
19587;SDS011;9940;47.252;8.696;2023-01-30T00:00:55;27.67;;;9.07;;
19587;SDS011;9940;47.252;8.696;2023-01-30T00:03:22;34.30;;;9.80;;
19587;SDS011;9940;47.252;8.696;2023-01-30T00:05:51;30.77;;;8.85;;
19587;SDS011;9940;47.252;8.696;2023-01-30T00:08:17;26.00;;;8.52;;
19587;SDS011;9940;47.252;8.696;2023-01-30T00:10:44;30.90;;;9.95;;
19587;SDS011;9940;47.252;8.696;2023-01-30T00:13:10;29.55;;;9.52;;
19587;SDS011;9940;47.252;8.696;2023-01-30T00:15:38;25.70;;;8.60;;
19587;SDS011;9940;47.252;8.696;2023-01-30T00:18:04;31.77;;;9.27;;
19587;SDS011;9940;47.252;8.696;2023-01-30T00:20:30;26.92;;;9.32;;
19587;SDS011;9940;47.252;8.696;2023-01-30T00:22:56;28.92;;;10.07;;
19587;SDS011;9940;47.252;8.696;2023-01-30T00:25:23;27.70;;;9.18;;
19587;SDS011;9940;47.252;8.696;2023-01-30T00:27:49;28.83;;;9.45;;
19587;SDS011;9940;47.252;8.696;2023-01-30T00:30:15;29.80;;;9.13;;
19587;SDS011;9940;47.252;8.696;2023-01-30T00:32:42;27.35;;;9.23;;
19587;SDS011;9940;47.252;8.696;2023-01-30T00:35:08;29.52;;;8.80;;
19587;SDS011;9940;47.252;8.696;2023-01-30T00:37:34;26.88;;;9.38;;
19587;SDS011;9940;47.252;8.696;2023-01-30T00:40:00;30.73;;;9.68;;
19587;SDS011;9940;47.252;8.696;2023-01-30T00:42:26;31.50;;;8.60;;
19587;SDS011;9940;47.252;8.696;2023-01-30T00:45:11;30.70;;;8.63;;
19587;SDS011;9940;47.252;8.696;2023-01-30T00:47:56;30.85;;;9.63;;
19587;SDS011;9940;47.252;8.696;2023-01-30T00:50:22;27.95;;;8.98;;
19587;SDS011;9940;47.252;8.696;2023-01-30T00:52:48;28.58;;;9.07;;
19587;SDS011;9940;47.252;8.696;2023-01-30T00:55:14;26.63;;;9.10;;
19587;SDS011;9940;47.252;8.696;2023-01-30T00:57:40;25.88;;;9.57;;
19587;SDS011;9940;47.252;8.696;2023-01-30T01:00:06;28.60;;;9.50;;
19587;SDS011;9940;47.252;8.696;2023-01-30T01:02:33;31.67;;;9.43;;
19587;SDS011;9940;47.252;8.696;2023-01-30T01:04:59;28.45;;;9.15;;
19587;SDS011;9940;47.252;8.696;2023-01-30T01:07:26;26.48;;;9.27;;
19587;SDS011;9940;47.252;8.696;2023-01-30T01:09:54;28.48;;;9.60;;
19587;SDS011;9940;47.252;8.696;2023-01-30T01:12:20;24.95;;;9.38;;
19587;SDS011;9940;47.252;8.696;2023-01-30T01:14:46;28.08;;;9.18;;
19587;SDS011;9940;47.252;8.696;2023-01-30T01:17:12;24.10;;;8.13;;
19587;SDS011;9940;47.252;8.696;2023-01-30T01:19:38;35.78;;;10.38;;
19587;SDS011;9940;47.252;8.696;2023-01-30T01:22:04;24.25;;;8.25;;
19587;SDS011;9940;47.252;8.696;2023-01-30T01:24:30;25.95;;;8.85;;
19587;SDS011;9940;47.252;8.696;2023-01-30T01:26:57;30.70;;;9.15;;
19587;SDS011;9940;47.252;8.696;2023-01-30T01:29:23;27.27;;;8.68;;
19587;SDS011;9940;47.252;8.696;2023-01-30T01:31:49;30.48;;;8.65;;
19587;SDS011;9940;47.252;8.696;2023-01-30T01:34:15;28.40;;;8.00;;
19587;SDS011;9940;47.252;8.696;2023-01-30T01:36:41;27.58;;;7.90;;
19587;SDS011;9940;47.252;8.696;2023-01-30T01:39:09;28.58;;;8.82;;
19587;SDS011;9940;47.252;8.696;2023-01-30T01:41:35;29.83;;;9.57;;
19587;SDS011;9940;47.252;8.696;2023-01-30T01:44:09;25.02;;;8.55;;
19587;SDS011;9940;47.252;8.696;2023-01-30T01:46:42;26.80;;;8.20;;
19587;SDS011;9940;47.252;8.696;2023-01-30T01:49:14;25.88;;;7.85;;
19587;SDS011;9940;47.252;8.696;2023-01-30T01:51:45;35.17;;;8.90;;
19587;SDS011;9940;47.252;8.696;2023-01-30T01:55:16;29.92;;;8.30;;
19587;SDS011;9940;47.252;8.696;2023-01-30T01:57:22;23.92;;;7.78;;
19587;SDS011;9940;47.252;8.696;2023-01-30T01:59:55;22.55;;;7.13;;
19587;SDS011;9940;47.252;8.696;2023-01-30T02:02:23;20.83;;;6.07;;
19587;SDS011;9940;47.252;8.696;2023-01-30T02:04:52;30.30;;;8.70;;
19587;SDS011;9940;47.252;8.696;2023-01-30T02:07:38;24.75;;;8.40;;
19587;SDS011;9940;47.252;8.696;2023-01-30T02:10:08;29.20;;;8.50;;
19587;SDS011;9940;47.252;8.696;2023-01-30T02:12:36;19.67;;;5.55;;
19587;SDS011;9940;47.252;8.696;2023-01-30T02:15:03;25.80;;;7.90;;
19587;SDS011;9940;47.252;8.696;2023-01-30T02:17:32;28.50;;;8.02;;
19587;SDS011;9940;47.252;8.696;2023-01-30T02:38:19;24.35;;;7.32;;
19587;SDS011;9940;47.252;8.696;2023-01-30T02:40:54;25.05;;;7.82;;
19587;SDS011;9940;47.252;8.696;2023-01-30T02:46:05;24.65;;;7.85;;
19587;SDS011;9940;47.252;8.696;2023-01-30T02:48:41;26.50;;;7.35;;
19587;SDS011;9940;47.252;8.696;2023-01-30T02:51:19;24.55;;;7.65;;
19587;SDS011;9940;47.252;8.696;2023-01-30T02:53:48;27.83;;;8.18;;
19587;SDS011;9940;47.252;8.696;2023-01-30T02:56:14;26.60;;;8.18;;
19587;SDS011;9940;47.252;8.696;2023-01-30T02:58:45;27.75;;;9.00;;
19587;SDS011;9940;47.252;8.696;2023-01-30T03:04:09;28.50;;;7.90;;
19587;SDS011;9940;47.252;8.696;2023-01-30T03:09:20;28.08;;;8.40;;
19587;SDS011;9940;47.252;8.696;2023-01-30T03:12:01;29.65;;;8.50;;
19587;SDS011;9940;47.252;8.696;2023-01-30T03:14:29;24.88;;;8.30;;
19587;SDS011;9940;47.252;8.696;2023-01-30T03:17:00;27.35;;;7.80;;
19587;SDS011;9940;47.252;8.696;2023-01-30T03:19:29;21.63;;;6.18;;
19587;SDS011;9940;47.252;8.696;2023-01-30T03:21:55;26.30;;;8.02;;
19587;SDS011;9940;47.252;8.696;2023-01-30T03:24:21;28.92;;;8.90;;
19587;SDS011;9940;47.252;8.696;2023-01-30T03:26:48;23.88;;;7.53;;
19587;SDS011;9940;47.252;8.696;2023-01-30T03:29:26;27.15;;;8.38;;
19587;SDS011;9940;47.252;8.696;2023-01-30T03:31:52;28.20;;;8.63;;
19587;SDS011;9940;47.252;8.696;2023-01-30T03:34:17;27.02;;;8.27;;
19587;SDS011;9940;47.252;8.696;2023-01-30T03:36:43;24.58;;;8.20;;
19587;SDS011;9940;47.252;8.696;2023-01-30T03:39:12;23.85;;;7.55;;
19587;SDS011;9940;47.252;8.696;2023-01-30T03:41:37;25.55;;;7.45;;
19587;SDS011;9940;47.252;8.696;2023-01-30T03:44:03;24.02;;;7.97;;
19587;SDS011;9940;47.252;8.696;2023-01-30T03:46:29;25.08;;;7.57;;
19587;SDS011;9940;47.252;8.696;2023-01-30T03:48:54;28.73;;;8.10;;
19587;SDS011;9940;47.252;8.696;2023-01-30T03:51:23;26.45;;;8.73;;
19587;SDS011;9940;47.252;8.696;2023-01-30T03:53:48;32.88;;;9.65;;
19587;SDS011;9940;47.252;8.696;2023-01-30T03:56:14;27.75;;;8.10;;
19587;SDS011;9940;47.252;8.696;2023-01-30T03:58:42;29.63;;;8.55;;
19587;SDS011;9940;47.252;8.696;2023-01-30T04:01:08;29.92;;;9.40;;
19587;SDS011;9940;47.252;8.696;2023-01-30T04:03:33;25.38;;;7.78;;
19587;SDS011;9940;47.252;8.696;2023-01-30T04:05:59;29.60;;;8.70;;
19587;SDS011;9940;47.252;8.696;2023-01-30T04:08:25;32.97;;;9.30;;
19587;SDS011;9940;47.252;8.696;2023-01-30T04:10:50;29.67;;;8.57;;
19587;SDS011;9940;47.252;8.696;2023-01-30T04:13:16;33.47;;;9.40;;
19587;SDS011;9940;47.252;8.696;2023-01-30T04:15:42;32.05;;;9.27;;
19587;SDS011;9940;47.252;8.696;2023-01-30T04:18:10;30.23;;;9.25;;
19587;SDS011;9940;47.252;8.696;2023-01-30T04:20:36;28.40;;;8.65;;
19587;SDS011;9940;47.252;8.696;2023-01-30T04:23:02;28.17;;;9.10;;
19587;SDS011;9940;47.252;8.696;2023-01-30T04:25:28;32.63;;;9.25;;
19587;SDS011;9940;47.252;8.696;2023-01-30T04:27:56;30.20;;;9.32;;
19587;SDS011;9940;47.252;8.696;2023-01-30T04:30:26;36.08;;;9.95;;
19587;SDS011;9940;47.252;8.696;2023-01-30T04:32:52;28.45;;;8.90;;
19587;SDS011;9940;47.252;8.696;2023-01-30T04:35:20;32.53;;;9.48;;
19587;SDS011;9940;47.252;8.696;2023-01-30T04:37:45;31.67;;;10.10;;
19587;SDS011;9940;47.252;8.696;2023-01-30T04:40:11;28.90;;;8.90;;
19587;SDS011;9940;47.252;8.696;2023-01-30T04:42:37;34.63;;;9.73;;
19587;SDS011;9940;47.252;8.696;2023-01-30T04:45:02;34.15;;;10.05;;
19587;SDS011;9940;47.252;8.696;2023-01-30T04:47:31;31.10;;;9.10;;
19587;SDS011;9940;47.252;8.696;2023-01-30T04:49:56;32.80;;;9.98;;
19587;SDS011;9940;47.252;8.696;2023-01-30T04:52:24;33.80;;;9.57;;
19587;SDS011;9940;47.252;8.696;2023-01-30T04:54:52;31.02;;;9.55;;
19587;SDS011;9940;47.252;8.696;2023-01-30T04:57:22;27.83;;;8.50;;
19587;SDS011;9940;47.252;8.696;2023-01-30T04:59:50;28.38;;;9.27;;
19587;SDS011;9940;47.252;8.696;2023-01-30T05:02:15;29.05;;;8.93;;
19587;SDS011;9940;47.252;8.696;2023-01-30T05:04:47;29.67;;;9.35;;
19587;SDS011;9940;47.252;8.696;2023-01-30T05:07:14;27.27;;;8.38;;
19587;SDS011;9940;47.252;8.696;2023-01-30T05:09:40;33.20;;;9.50;;
19587;SDS011;9940;47.252;8.696;2023-01-30T05:12:05;26.50;;;9.45;;
19587;SDS011;9940;47.252;8.696;2023-01-30T05:14:31;29.38;;;9.20;;
19587;SDS011;9940;47.252;8.696;2023-01-30T05:16:58;27.33;;;9.63;;
19587;SDS011;9940;47.252;8.696;2023-01-30T05:19:24;27.25;;;8.63;;
19587;SDS011;9940;47.252;8.696;2023-01-30T05:21:50;29.08;;;9.00;;
19587;SDS011;9940;47.252;8.696;2023-01-30T05:24:17;28.15;;;8.50;;
19587;SDS011;9940;47.252;8.696;2023-01-30T05:26:43;29.50;;;9.02;;
19587;SDS011;9940;47.252;8.696;2023-01-30T05:29:09;28.20;;;8.57;;
19587;SDS011;9940;47.252;8.696;2023-01-30T05:31:35;29.67;;;10.10;;
19587;SDS011;9940;47.252;8.696;2023-01-30T05:34:02;27.45;;;8.65;;
19587;SDS011;9940;47.252;8.696;2023-01-30T05:36:28;30.52;;;8.90;;
19587;SDS011;9940;47.252;8.696;2023-01-30T05:38:53;28.42;;;8.20;;
19587;SDS011;9940;47.252;8.696;2023-01-30T05:41:21;26.75;;;8.20;;
19587;SDS011;9940;47.252;8.696;2023-01-30T05:43:48;30.40;;;10.10;;
19587;SDS011;9940;47.252;8.696;2023-01-30T05:46:14;33.03;;;9.52;;
19587;SDS011;9940;47.252;8.696;2023-01-30T05:48:40;29.33;;;9.40;;
19587;SDS011;9940;47.252;8.696;2023-01-30T05:51:18;33.15;;;8.30;;
19587;SDS011;9940;47.252;8.696;2023-01-30T05:53:48;28.75;;;8.57;;
19587;SDS011;9940;47.252;8.696;2023-01-30T05:56:15;26.42;;;8.85;;
19587;SDS011;9940;47.252;8.696;2023-01-30T05:58:41;27.48;;;9.35;;
19587;SDS011;9940;47.252;8.696;2023-01-30T06:01:10;28.52;;;8.65;;
19587;SDS011;9940;47.252;8.696;2023-01-30T06:03:37;29.45;;;8.88;;
19587;SDS011;9940;47.252;8.696;2023-01-30T06:06:03;34.30;;;9.77;;
19587;SDS011;9940;47.252;8.696;2023-01-30T06:08:32;29.23;;;8.68;;
19587;SDS011;9940;47.252;8.696;2023-01-30T06:11:01;25.73;;;8.05;;
19587;SDS011;9940;47.252;8.696;2023-01-30T06:13:28;26.67;;;9.02;;
19587;SDS011;9940;47.252;8.696;2023-01-30T06:15:53;25.92;;;8.77;;
19587;SDS011;9940;47.252;8.696;2023-01-30T06:18:19;25.92;;;8.60;;
19587;SDS011;9940;47.252;8.696;2023-01-30T06:20:50;27.35;;;9.05;;
19587;SDS011;9940;47.252;8.696;2023-01-30T06:23:17;30.17;;;8.48;;
19587;SDS011;9940;47.252;8.696;2023-01-30T06:25:44;29.20;;;8.80;;
19587;SDS011;9940;47.252;8.696;2023-01-30T06:28:11;27.17;;;8.50;;
19587;SDS011;9940;47.252;8.696;2023-01-30T06:30:36;24.65;;;8.13;;
19587;SDS011;9940;47.252;8.696;2023-01-30T06:33:02;31.63;;;9.13;;
19587;SDS011;9940;47.252;8.696;2023-01-30T06:35:28;34.50;;;10.15;;
19587;SDS011;9940;47.252;8.696;2023-01-30T06:37:54;35.08;;;10.20;;
19587;SDS011;9940;47.252;8.696;2023-01-30T06:40:19;34.97;;;10.00;;
19587;SDS011;9940;47.252;8.696;2023-01-30T06:42:47;35.33;;;10.48;;
19587;SDS011;9940;47.252;8.696;2023-01-30T06:45:14;37.08;;;10.07;;
19587;SDS011;9940;47.252;8.696;2023-01-30T06:47:44;33.33;;;9.50;;
19587;SDS011;9940;47.252;8.696;2023-01-30T06:50:16;35.72;;;9.02;;
19587;SDS011;9940;47.252;8.696;2023-01-30T06:52:44;27.60;;;8.40;;
19587;SDS011;9940;47.252;8.696;2023-01-30T06:55:11;31.70;;;9.68;;
19587;SDS011;9940;47.252;8.696;2023-01-30T06:57:39;36.33;;;10.45;;
19587;SDS011;9940;47.252;8.696;2023-01-30T07:00:06;32.90;;;9.80;;
19587;SDS011;9940;47.252;8.696;2023-01-30T07:02:34;32.35;;;9.48;;
19587;SDS011;9940;47.252;8.696;2023-01-30T07:05:00;34.38;;;9.88;;
19587;SDS011;9940;47.252;8.696;2023-01-30T07:07:26;36.30;;;10.60;;
19587;SDS011;9940;47.252;8.696;2023-01-30T07:09:53;39.47;;;10.75;;
19587;SDS011;9940;47.252;8.696;2023-01-30T07:12:18;34.05;;;10.55;;
19587;SDS011;9940;47.252;8.696;2023-01-30T07:14:44;35.97;;;11.07;;
19587;SDS011;9940;47.252;8.696;2023-01-30T07:17:10;41.10;;;11.57;;
19587;SDS011;9940;47.252;8.696;2023-01-30T07:19:36;37.67;;;11.48;;
19587;SDS011;9940;47.252;8.696;2023-01-30T07:22:03;35.78;;;10.25;;
19587;SDS011;9940;47.252;8.696;2023-01-30T07:24:31;35.45;;;9.82;;
19587;SDS011;9940;47.252;8.696;2023-01-30T07:26:59;31.13;;;10.15;;
19587;SDS011;9940;47.252;8.696;2023-01-30T07:29:25;33.58;;;10.50;;
19587;SDS011;9940;47.252;8.696;2023-01-30T07:31:50;35.10;;;10.32;;
19587;SDS011;9940;47.252;8.696;2023-01-30T07:34:18;37.78;;;11.00;;
19587;SDS011;9940;47.252;8.696;2023-01-30T07:36:47;33.40;;;9.55;;
19587;SDS011;9940;47.252;8.696;2023-01-30T07:39:15;33.63;;;9.15;;
19587;SDS011;9940;47.252;8.696;2023-01-30T07:41:40;33.90;;;10.10;;
19587;SDS011;9940;47.252;8.696;2023-01-30T07:44:08;31.55;;;9.57;;
19587;SDS011;9940;47.252;8.696;2023-01-30T07:46:34;31.85;;;9.18;;
19587;SDS011;9940;47.252;8.696;2023-01-30T07:49:05;33.55;;;10.10;;
19587;SDS011;9940;47.252;8.696;2023-01-30T07:51:35;35.80;;;10.57;;
19587;SDS011;9940;47.252;8.696;2023-01-30T07:54:03;28.65;;;9.52;;
19587;SDS011;9940;47.252;8.696;2023-01-30T07:56:31;36.13;;;10.10;;
19587;SDS011;9940;47.252;8.696;2023-01-30T07:58:59;34.20;;;9.40;;
19587;SDS011;9940;47.252;8.696;2023-01-30T08:01:25;40.78;;;11.50;;
19587;SDS011;9940;47.252;8.696;2023-01-30T08:03:51;34.35;;;10.30;;
19587;SDS011;9940;47.252;8.696;2023-01-30T08:06:18;34.28;;;9.82;;
19587;SDS011;9940;47.252;8.696;2023-01-30T08:08:46;33.47;;;10.27;;
19587;SDS011;9940;47.252;8.696;2023-01-30T08:11:14;35.53;;;10.32;;
19587;SDS011;9940;47.252;8.696;2023-01-30T08:13:40;33.60;;;9.95;;
19587;SDS011;9940;47.252;8.696;2023-01-30T08:16:06;31.27;;;9.00;;
19587;SDS011;9940;47.252;8.696;2023-01-30T08:18:32;28.50;;;8.30;;
19587;SDS011;9940;47.252;8.696;2023-01-30T08:20:59;32.40;;;9.90;;
19587;SDS011;9940;47.252;8.696;2023-01-30T08:23:26;28.67;;;9.27;;
19587;SDS011;9940;47.252;8.696;2023-01-30T08:25:53;35.90;;;9.48;;
19587;SDS011;9940;47.252;8.696;2023-01-30T08:28:23;36.35;;;9.85;;
19587;SDS011;9940;47.252;8.696;2023-01-30T08:30:49;31.20;;;9.13;;
19587;SDS011;9940;47.252;8.696;2023-01-30T08:33:17;28.95;;;9.70;;
19587;SDS011;9940;47.252;8.696;2023-01-30T08:35:43;35.50;;;10.13;;
19587;SDS011;9940;47.252;8.696;2023-01-30T08:38:08;33.70;;;9.80;;
19587;SDS011;9940;47.252;8.696;2023-01-30T08:40:34;31.73;;;9.82;;
19587;SDS011;9940;47.252;8.696;2023-01-30T08:43:01;28.52;;;9.10;;
19587;SDS011;9940;47.252;8.696;2023-01-30T08:45:27;36.30;;;10.23;;
19587;SDS011;9940;47.252;8.696;2023-01-30T08:47:56;35.63;;;10.32;;
19587;SDS011;9940;47.252;8.696;2023-01-30T08:50:26;34.85;;;9.75;;
19587;SDS011;9940;47.252;8.696;2023-01-30T08:52:54;28.73;;;9.70;;
19587;SDS011;9940;47.252;8.696;2023-01-30T08:55:20;32.97;;;10.07;;
19587;SDS011;9940;47.252;8.696;2023-01-30T08:57:46;31.30;;;10.20;;
19587;SDS011;9940;47.252;8.696;2023-01-30T09:02:40;33.58;;;10.80;;
19587;SDS011;9940;47.252;8.696;2023-01-30T09:05:08;33.45;;;10.00;;
19587;SDS011;9940;47.252;8.696;2023-01-30T09:07:35;32.00;;;9.55;;
19587;SDS011;9940;47.252;8.696;2023-01-30T09:10:00;33.25;;;9.77;;
19587;SDS011;9940;47.252;8.696;2023-01-30T09:12:28;34.45;;;10.15;;
19587;SDS011;9940;47.252;8.696;2023-01-30T09:14:54;28.45;;;10.07;;
19587;SDS011;9940;47.252;8.696;2023-01-30T09:17:22;31.25;;;9.68;;
19587;SDS011;9940;47.252;8.696;2023-01-30T09:19:48;28.70;;;9.55;;
19587;SDS011;9940;47.252;8.696;2023-01-30T09:22:16;33.10;;;9.48;;
19587;SDS011;9940;47.252;8.696;2023-01-30T09:24:42;31.25;;;9.10;;
19587;SDS011;9940;47.252;8.696;2023-01-30T09:27:08;32.08;;;9.77;;
19587;SDS011;9940;47.252;8.696;2023-01-30T09:29:33;29.02;;;9.23;;
19587;SDS011;9940;47.252;8.696;2023-01-30T09:31:59;31.10;;;9.57;;
19587;SDS011;9940;47.252;8.696;2023-01-30T09:34:25;28.65;;;9.32;;
19587;SDS011;9940;47.252;8.696;2023-01-30T09:36:53;33.13;;;9.55;;
19587;SDS011;9940;47.252;8.696;2023-01-30T09:39:19;32.17;;;9.50;;
19587;SDS011;9940;47.252;8.696;2023-01-30T09:55:23;28.95;;;9.40;;
19587;SDS011;9940;47.252;8.696;2023-01-30T09:57:56;26.92;;;9.27;;
19587;SDS011;9940;47.252;8.696;2023-01-30T10:00:38;26.13;;;7.15;;
19587;SDS011;9940;47.252;8.696;2023-01-30T10:03:09;28.48;;;8.50;;
19587;SDS011;9940;47.252;8.696;2023-01-30T10:05:52;28.92;;;8.93;;
19587;SDS011;9940;47.252;8.696;2023-01-30T10:18:58;30.13;;;8.43;;
19587;SDS011;9940;47.252;8.696;2023-01-30T10:26:28;25.52;;;8.82;;
19587;SDS011;9940;47.252;8.696;2023-01-30T10:31:24;27.25;;;9.60;;
19587;SDS011;9940;47.252;8.696;2023-01-30T10:33:59;31.83;;;10.68;;
19587;SDS011;9940;47.252;8.696;2023-01-30T10:37:14;31.17;;;9.15;;
19587;SDS011;9940;47.252;8.696;2023-01-30T10:39:21;28.65;;;9.70;;
19587;SDS011;9940;47.252;8.696;2023-01-30T10:44:53;34.25;;;9.40;;
19587;SDS011;9940;47.252;8.696;2023-01-30T10:50:19;31.92;;;11.25;;
19587;SDS011;9940;47.252;8.696;2023-01-30T10:52:55;32.58;;;10.55;;
19587;SDS011;9940;47.252;8.696;2023-01-30T10:55:32;28.98;;;10.23;;
19587;SDS011;9940;47.252;8.696;2023-01-30T11:03:14;30.63;;;10.13;;
19587;SDS011;9940;47.252;8.696;2023-01-30T11:05:48;26.05;;;9.10;;
19587;SDS011;9940;47.252;8.696;2023-01-30T11:10:47;27.65;;;10.48;;
19587;SDS011;9940;47.252;8.696;2023-01-30T11:13:15;29.92;;;9.48;;
19587;SDS011;9940;47.252;8.696;2023-01-30T11:15:46;27.05;;;9.75;;
19587;SDS011;9940;47.252;8.696;2023-01-30T11:18:18;25.65;;;9.15;;
19587;SDS011;9940;47.252;8.696;2023-01-30T11:20:45;24.30;;;9.07;;
19587;SDS011;9940;47.252;8.696;2023-01-30T11:23:26;27.77;;;9.82;;
19587;SDS011;9940;47.252;8.696;2023-01-30T11:25:55;22.98;;;9.48;;
19587;SDS011;9940;47.252;8.696;2023-01-30T11:28:23;21.60;;;8.82;;
19587;SDS011;9940;47.252;8.696;2023-01-30T11:30:57;24.13;;;8.55;;
19587;SDS011;9940;47.252;8.696;2023-01-30T11:33:34;28.55;;;9.73;;
19587;SDS011;9940;47.252;8.696;2023-01-30T11:36:06;25.98;;;9.00;;
19587;SDS011;9940;47.252;8.696;2023-01-30T11:38:58;25.02;;;8.23;;
19587;SDS011;9940;47.252;8.696;2023-01-30T11:41:25;23.40;;;8.02;;
19587;SDS011;9940;47.252;8.696;2023-01-30T11:43:58;22.88;;;8.75;;
19587;SDS011;9940;47.252;8.696;2023-01-30T11:46:32;25.85;;;9.70;;
19587;SDS011;9940;47.252;8.696;2023-01-30T11:49:03;26.27;;;9.15;;
19587;SDS011;9940;47.252;8.696;2023-01-30T11:51:35;27.73;;;9.15;;
19587;SDS011;9940;47.252;8.696;2023-01-30T11:54:12;24.63;;;8.75;;
19587;SDS011;9940;47.252;8.696;2023-01-30T12:01:51;28.42;;;9.73;;
19587;SDS011;9940;47.252;8.696;2023-01-30T12:04:25;23.10;;;9.50;;
19587;SDS011;9940;47.252;8.696;2023-01-30T12:07:03;24.88;;;9.82;;
19587;SDS011;9940;47.252;8.696;2023-01-30T12:09:38;24.83;;;9.95;;
19587;SDS011;9940;47.252;8.696;2023-01-30T12:12:26;20.55;;;9.57;;
19587;SDS011;9940;47.252;8.696;2023-01-30T12:14:56;24.02;;;10.77;;
19587;SDS011;9940;47.252;8.696;2023-01-30T12:17:26;23.20;;;9.82;;
19587;SDS011;9940;47.252;8.696;2023-01-30T12:19:57;24.33;;;10.38;;
19587;SDS011;9940;47.252;8.696;2023-01-30T12:22:29;26.75;;;11.07;;
19587;SDS011;9940;47.252;8.696;2023-01-30T12:24:58;23.92;;;11.55;;
19587;SDS011;9940;47.252;8.696;2023-01-30T12:32:24;24.90;;;10.75;;
19587;SDS011;9940;47.252;8.696;2023-01-30T12:34:51;20.90;;;10.05;;
19587;SDS011;9940;47.252;8.696;2023-01-30T12:42:59;21.92;;;10.45;;
19587;SDS011;9940;47.252;8.696;2023-01-30T12:45:21;22.55;;;10.85;;
19587;SDS011;9940;47.252;8.696;2023-01-30T12:58:04;23.60;;;9.88;;
19587;SDS011;9940;47.252;8.696;2023-01-30T13:13:42;21.58;;;9.80;;
19587;SDS011;9940;47.252;8.696;2023-01-30T13:23:48;21.45;;;8.90;;
19587;SDS011;9940;47.252;8.696;2023-01-30T13:26:21;21.17;;;8.38;;
19587;SDS011;9940;47.252;8.696;2023-01-30T13:28:55;26.77;;;10.15;;
19587;SDS011;9940;47.252;8.696;2023-01-30T13:31:22;24.25;;;9.57;;
19587;SDS011;9940;47.252;8.696;2023-01-30T13:33:50;24.02;;;9.50;;
19587;SDS011;9940;47.252;8.696;2023-01-30T13:39:03;23.80;;;9.48;;
19587;SDS011;9940;47.252;8.696;2023-01-30T13:41:32;23.95;;;9.88;;
19587;SDS011;9940;47.252;8.696;2023-01-30T13:44:01;20.88;;;8.57;;
19587;SDS011;9940;47.252;8.696;2023-01-30T13:46:30;22.90;;;9.25;;
19587;SDS011;9940;47.252;8.696;2023-01-30T13:52:04;21.75;;;7.80;;
19587;SDS011;9940;47.252;8.696;2023-01-30T13:54:42;20.52;;;8.35;;
19587;SDS011;9940;47.252;8.696;2023-01-30T14:08:22;15.90;;;6.75;;
19587;SDS011;9940;47.252;8.696;2023-01-30T14:10:54;16.02;;;6.38;;
19587;SDS011;9940;47.252;8.696;2023-01-30T14:13:21;14.68;;;6.22;;
19587;SDS011;9940;47.252;8.696;2023-01-30T14:15:54;13.60;;;5.95;;
19587;SDS011;9940;47.252;8.696;2023-01-30T14:18:21;13.43;;;5.68;;
19587;SDS011;9940;47.252;8.696;2023-01-30T14:20:49;15.57;;;5.65;;
19587;SDS011;9940;47.252;8.696;2023-01-30T14:25:45;12.80;;;4.90;;
19587;SDS011;9940;47.252;8.696;2023-01-30T14:38:27;13.73;;;5.40;;
19587;SDS011;9940;47.252;8.696;2023-01-30T14:48:44;11.43;;;4.50;;
19587;SDS011;9940;47.252;8.696;2023-01-30T14:54:02;10.52;;;4.30;;
19587;SDS011;9940;47.252;8.696;2023-01-30T14:59:23;10.45;;;3.50;;
19587;SDS011;9940;47.252;8.696;2023-01-30T15:01:59;8.73;;;3.15;;
19587;SDS011;9940;47.252;8.696;2023-01-30T15:07:15;10.95;;;3.60;;
19587;SDS011;9940;47.252;8.696;2023-01-30T15:09:49;10.02;;;3.67;;
19587;SDS011;9940;47.252;8.696;2023-01-30T15:15:13;9.80;;;3.58;;
19587;SDS011;9940;47.252;8.696;2023-01-30T15:31:36;10.52;;;3.00;;
19587;SDS011;9940;47.252;8.696;2023-01-30T15:34:01;8.57;;;3.40;;
19587;SDS011;9940;47.252;8.696;2023-01-30T15:38:58;6.18;;;2.70;;
19587;SDS011;9940;47.252;8.696;2023-01-30T15:41:30;7.93;;;3.15;;
19587;SDS011;9940;47.252;8.696;2023-01-30T15:52:03;5.70;;;2.63;;
19587;SDS011;9940;47.252;8.696;2023-01-30T15:54:31;8.63;;;2.97;;
19587;SDS011;9940;47.252;8.696;2023-01-30T15:56:59;6.97;;;3.25;;
19587;SDS011;9940;47.252;8.696;2023-01-30T15:59:29;5.80;;;2.28;;
19587;SDS011;9940;47.252;8.696;2023-01-30T16:02:13;6.85;;;2.33;;
19587;SDS011;9940;47.252;8.696;2023-01-30T16:04:49;7.30;;;2.67;;
19587;SDS011;9940;47.252;8.696;2023-01-30T16:07:39;6.25;;;2.35;;
19587;SDS011;9940;47.252;8.696;2023-01-30T16:10:28;7.90;;;2.80;;
19587;SDS011;9940;47.252;8.696;2023-01-30T16:12:55;6.28;;;2.55;;
19587;SDS011;9940;47.252;8.696;2023-01-30T16:17:58;6.40;;;2.37;;
19587;SDS011;9940;47.252;8.696;2023-01-30T16:20:41;6.35;;;2.58;;
19587;SDS011;9940;47.252;8.696;2023-01-30T16:23:18;7.45;;;2.60;;
19587;SDS011;9940;47.252;8.696;2023-01-30T16:25:50;7.40;;;2.58;;
19587;SDS011;9940;47.252;8.696;2023-01-30T16:28:20;6.75;;;2.55;;
19587;SDS011;9940;47.252;8.696;2023-01-30T16:30:47;7.10;;;3.03;;
19587;SDS011;9940;47.252;8.696;2023-01-30T16:33:20;6.90;;;2.72;;
19587;SDS011;9940;47.252;8.696;2023-01-30T16:35:48;5.95;;;2.70;;
19587;SDS011;9940;47.252;8.696;2023-01-30T16:41:01;6.65;;;2.67;;
19587;SDS011;9940;47.252;8.696;2023-01-30T16:43:31;6.15;;;2.63;;
19587;SDS011;9940;47.252;8.696;2023-01-30T16:49:13;5.28;;;2.28;;
19587;SDS011;9940;47.252;8.696;2023-01-30T16:54:55;7.25;;;2.83;;
19587;SDS011;9940;47.252;8.696;2023-01-30T16:57:34;6.78;;;2.85;;
19587;SDS011;9940;47.252;8.696;2023-01-30T17:02:48;6.38;;;2.63;;
19587;SDS011;9940;47.252;8.696;2023-01-30T17:07:47;5.60;;;2.45;;
19587;SDS011;9940;47.252;8.696;2023-01-30T17:13:09;7.32;;;2.60;;
19587;SDS011;9940;47.252;8.696;2023-01-30T17:16:16;6.20;;;2.42;;
19587;SDS011;9940;47.252;8.696;2023-01-30T17:18:49;6.43;;;2.00;;
19587;SDS011;9940;47.252;8.696;2023-01-30T17:21:16;6.15;;;2.47;;
19587;SDS011;9940;47.252;8.696;2023-01-30T17:23:46;5.15;;;2.38;;
19587;SDS011;9940;47.252;8.696;2023-01-30T17:26:17;6.13;;;2.30;;
19587;SDS011;9940;47.252;8.696;2023-01-30T17:28:43;4.85;;;2.47;;
19587;SDS011;9940;47.252;8.696;2023-01-30T17:31:09;6.82;;;2.78;;
19587;SDS011;9940;47.252;8.696;2023-01-30T17:33:39;6.30;;;2.22;;
19587;SDS011;9940;47.252;8.696;2023-01-30T17:36:08;7.35;;;2.65;;
19587;SDS011;9940;47.252;8.696;2023-01-30T17:38:47;7.13;;;2.77;;
19587;SDS011;9940;47.252;8.696;2023-01-30T17:41:17;7.07;;;2.90;;
19587;SDS011;9940;47.252;8.696;2023-01-30T17:43:47;6.50;;;2.70;;
19587;SDS011;9940;47.252;8.696;2023-01-30T17:46:13;6.38;;;3.10;;
19587;SDS011;9940;47.252;8.696;2023-01-30T17:48:42;5.30;;;2.58;;
19587;SDS011;9940;47.252;8.696;2023-01-30T17:51:10;7.90;;;3.40;;
19587;SDS011;9940;47.252;8.696;2023-01-30T17:53:38;7.10;;;3.30;;
19587;SDS011;9940;47.252;8.696;2023-01-30T17:56:05;8.90;;;3.38;;
19587;SDS011;9940;47.252;8.696;2023-01-30T17:58:39;6.80;;;3.35;;
19587;SDS011;9940;47.252;8.696;2023-01-30T18:01:04;8.50;;;3.47;;
19587;SDS011;9940;47.252;8.696;2023-01-30T18:03:32;9.25;;;3.40;;
19587;SDS011;9940;47.252;8.696;2023-01-30T18:06:00;5.85;;;2.78;;
19587;SDS011;9940;47.252;8.696;2023-01-30T18:08:28;7.85;;;3.15;;
19587;SDS011;9940;47.252;8.696;2023-01-30T18:10:54;7.28;;;3.17;;
19587;SDS011;9940;47.252;8.696;2023-01-30T18:13:22;11.45;;;3.50;;
19587;SDS011;9940;47.252;8.696;2023-01-30T18:15:47;9.63;;;3.20;;
19587;SDS011;9940;47.252;8.696;2023-01-30T18:18:13;8.60;;;3.28;;
19587;SDS011;9940;47.252;8.696;2023-01-30T18:20:41;10.40;;;3.70;;
19587;SDS011;9940;47.252;8.696;2023-01-30T18:23:06;9.30;;;3.83;;
19587;SDS011;9940;47.252;8.696;2023-01-30T18:25:32;13.30;;;4.40;;
19587;SDS011;9940;47.252;8.696;2023-01-30T18:27:58;12.57;;;4.50;;
19587;SDS011;9940;47.252;8.696;2023-01-30T18:30:23;11.68;;;4.55;;
19587;SDS011;9940;47.252;8.696;2023-01-30T18:32:49;11.63;;;4.43;;